^^
Station Historical Data
Daily Summary for January 8, 2018 Units:  Both    English   Metric
« Previous Day
Next Day »
Daily Weekly Monthly Yearly Custom
  High: Low: Average:
Temperature: TemperatureC °F /  -17.8 °C -4.7 °F /  -20.4 °C -1.5 °F /  -18.6 °C
Dew Point: DewpointC °F /  -17.8 °C -6.3 °F /  -21.3 °C -4.4 °F /  -20.2 °C
Humidity: Humidity% 71% 81%
Wind Speed: WindSpeedKMHmph /  0km/h - 3.3mph /  5.3km/h
Wind Gust: WindSpeedGustKMHmph /  0km/h - -
Wind- - WNW
Pressure: PressurehPa in /  0 hPa 1009.0 in /  34164.7 hPa -
Precipitation: 0.0 in /  0 mm    
Historical Graphs
 
 
Tabular Data for January 8, 2018
Time Temperature Dew Point Pressure Wind Wind Speed Wind Gust Humidity Rainfall Rate (Hourly) solar Conditions
TemperatureC °F /  -17.8 °C DewpointC °F /  -17.8 °C PressurehPain /  0hPa Calm     Humidity% HourlyPrecipMMin /  0mm SoftwareType W/m2 Conditions
00:00 -0.2 °F /  -17.9 °C -3.4 °F /  -19.7 °C 1009.0in /  34164.7hPa West 4.5mph /  7.2km/h 16.7mph /  26.9km/h 79% 0.0in /  0mm WeatherDisplay:10.37 W/m2 FEW
00:05 -0.2 °F /  -17.9 °C -3.6 °F /  -19.8 °C 1009.0in /  34164.7hPa NNW 2.3mph /  3.7km/h 5.6mph /  9km/h 78% 0.0in /  0mm WeatherDisplay:10.37 W/m2 FEW
00:10 -0.1 °F /  -17.8 °C -3.7 °F /  -19.8 °C 1009.0in /  34164.7hPa NW 7.4mph /  11.9km/h 20.9mph /  33.6km/h 77% 0.0in /  0mm WeatherDisplay:10.37 W/m2 FEW
00:16 0.1 °F /  -17.7 °C -3.7 °F /  -19.8 °C 1009.0in /  34164.7hPa WNW 1.9mph /  3.1km/h 7.4mph /  11.9km/h 76% 0.0in /  0mm WeatherDisplay:10.37 W/m2 FEW
00:21 0.2 °F /  -17.7 °C -3.6 °F /  -19.8 °C 1009.0in /  34164.7hPa NW 5.8mph /  9.3km/h 22.5mph /  36.2km/h 76% 0.0in /  0mm WeatherDisplay:10.37 W/m2 FEW
00:26 0.3 °F /  -17.6 °C -3.6 °F /  -19.8 °C 1009.0in /  34164.7hPa SE 3.9mph /  6.3km/h 16.7mph /  26.9km/h 75% 0.0in /  0mm WeatherDisplay:10.37 W/m2 FEW
00:32 0.3 °F /  -17.6 °C -3.6 °F /  -19.8 °C 1009.0in /  34164.7hPa NW 3.5mph /  5.6km/h 6.4mph /  10.3km/h 75% 0.0in /  0mm WeatherDisplay:10.37 W/m2 FEW
00:37 0.3 °F /  -17.6 °C -3.6 °F /  -19.8 °C 1009.4in /  34178.3hPa NNW 12.9mph /  20.8km/h 18.5mph /  29.8km/h 75% 0.0in /  0mm WeatherDisplay:10.37 W/m2 FEW
00:43 0.4 °F /  -17.6 °C -3.7 °F /  -19.8 °C 1009.4in /  34178.3hPa West 6.4mph /  10.3km/h 18.5mph /  29.8km/h 74% 0.0in /  0mm WeatherDisplay:10.37 W/m2 FEW
00:48 0.4 °F /  -17.6 °C -3.7 °F /  -19.8 °C 1009.4in /  34178.3hPa West 3.9mph /  6.3km/h 9.3mph /  15km/h 74% 0.0in /  0mm WeatherDisplay:10.37 W/m2 FEW
00:54 0.5 °F /  -17.5 °C -3.8 °F /  -19.9 °C 1009.4in /  34178.3hPa NW 3.1mph /  5km/h 11.1mph /  17.9km/h 73% 0.0in /  0mm WeatherDisplay:10.37 W/m2 FEW
00:59 0.6 °F /  -17.4 °C -3.7 °F /  -19.8 °C 1009.4in /  34178.3hPa NNW 4.3mph /  6.9km/h 11.1mph /  17.9km/h 73% 0.0in /  0mm WeatherDisplay:10.37 W/m2 FEW
01:04 0.6 °F /  -17.4 °C -3.9 °F /  -19.9 °C 1009.4in /  34178.3hPa West 1.4mph /  2.3km/h 9.3mph /  15km/h 72% 0.0in /  0mm WeatherDisplay:10.37 W/m2 FEW
01:09 0.6 °F /  -17.4 °C -3.7 °F /  -19.8 °C 1009.4in /  34178.3hPa NNW 5.5mph /  8.9km/h 13.0mph /  20.9km/h 73% 0.0in /  0mm WeatherDisplay:10.37 W/m2 FEW
01:15 0.5 °F /  -17.5 °C -3.8 °F /  -19.9 °C 1009.7in /  34188.4hPa SW 9.5mph /  15.3km/h 18.5mph /  29.8km/h 73% 0.0in /  0mm WeatherDisplay:10.37 W/m2 FEW
01:20 0.6 °F /  -17.4 °C -3.7 °F /  -19.8 °C 1009.4in /  34178.3hPa WSW 12.9mph /  20.8km/h 27.8mph /  44.7km/h 73% 0.0in /  0mm WeatherDisplay:10.37 W/m2 FEW
01:25 0.5 °F /  -17.5 °C -3.8 °F /  -19.9 °C 1009.7in /  34188.4hPa North 1.1mph /  1.8km/h 7.4mph /  11.9km/h 73% 0.0in /  0mm WeatherDisplay:10.37 W/m2 FEW
01:30 0.4 °F /  -17.6 °C -3.7 °F /  -19.8 °C 1009.7in /  34188.4hPa ENE 2.6mph /  4.2km/h 13.0mph /  20.9km/h 74% 0.0in /  0mm WeatherDisplay:10.37 W/m2 FEW
01:35 0.4 °F /  -17.6 °C -3.7 °F /  -19.8 °C 1009.7in /  34188.4hPa NW 5.5mph /  8.9km/h 13.0mph /  20.9km/h 74% 0.0in /  0mm WeatherDisplay:10.37 W/m2 FEW
01:40 0.3 °F /  -17.6 °C -3.6 °F /  -19.8 °C 1009.7in /  34188.4hPa WSW 4.5mph /  7.2km/h 7.4mph /  11.9km/h 75% 0.0in /  0mm WeatherDisplay:10.37 W/m2 FEW
01:45 0.3 °F /  -17.6 °C -3.4 °F /  -19.7 °C 1010.0in /  34198.6hPa NNW 1.3mph /  2.1km/h   76% 0.0in /  0mm WeatherDisplay:10.37 W/m2 FEW
01:51 0.2 °F /  -17.7 °C -3.4 °F /  -19.7 °C 1010.0in /  34198.6hPa WNW 6.4mph /  10.3km/h 18.5mph /  29.8km/h 77% 0.0in /  0mm WeatherDisplay:10.37 W/m2 FEW
01:56 0.2 °F /  -17.7 °C -3.4 °F /  -19.7 °C 1009.7in /  34188.4hPa North 7.1mph /  11.4km/h 17.7mph /  28.5km/h 77% 0.0in /  0mm WeatherDisplay:10.37 W/m2 FEW
02:01 0.1 °F /  -17.7 °C -3.3 °F /  -19.6 °C 1010.0in /  34198.6hPa West 4.3mph /  6.9km/h 4.8mph /  7.7km/h 78% 0.0in /  0mm WeatherDisplay:10.37 W/m2 FEW
02:06 0.1 °F /  -17.7 °C -3.3 °F /  -19.6 °C 1010.0in /  34198.6hPa WNW 6.8mph /  10.9km/h 17.7mph /  28.5km/h 78% 0.0in /  0mm WeatherDisplay:10.37 W/m2 FEW
02:11 -0.1 °F /  -17.8 °C -3.1 °F /  -19.5 °C 1010.0in /  34198.6hPa WNW 7.4mph /  11.9km/h 8.0mph /  12.9km/h 80% 0.0in /  0mm WeatherDisplay:10.37 W/m2 FEW
02:17 -0.2 °F /  -17.9 °C -3.1 °F /  -19.5 °C 1010.0in /  34198.6hPa WSW 4.2mph /  6.8km/h 13.0mph /  20.9km/h 81% 0.0in /  0mm WeatherDisplay:10.37 W/m2 FEW
02:23 -0.3 °F /  -17.9 °C -2.8 °F /  -19.3 °C 1010.0in /  34198.6hPa NW 9.2mph /  14.8km/h 18.5mph /  29.8km/h 83% 0.0in /  0mm WeatherDisplay:10.37 W/m2 FEW
02:29 -0.4 °F /  -18 °C -2.9 °F /  -19.4 °C 1010.0in /  34198.6hPa WSW 7.4mph /  11.9km/h 18.5mph /  29.8km/h 83% 0.0in /  0mm WeatherDisplay:10.37 W/m2 FEW
02:36 -0.4 °F /  -18 °C -2.9 °F /  -19.4 °C 1010.0in /  34198.6hPa SSW 2.4mph /  3.9km/h 5.6mph /  9km/h 83% 0.0in /  0mm WeatherDisplay:10.37 W/m2 FEW
02:41 -0.4 °F /  -18 °C -3.0 °F /  -19.4 °C 1010.0in /  34198.6hPa WSW 3.2mph /  5.1km/h 14.8mph /  23.8km/h 83% 0.0in /  0mm WeatherDisplay:10.37 W/m2 FEW
02:49 -0.4 °F /  -18 °C -2.8 °F /  -19.3 °C 1010.0in /  34198.6hPa South 4.3mph /  6.9km/h 7.4mph /  11.9km/h 84% 0.0in /  0mm WeatherDisplay:10.37 W/m2 FEW
02:55 -0.4 °F /  -18 °C -2.9 °F /  -19.4 °C 1010.0in /  34198.6hPa NW 5.1mph /  8.2km/h 14.8mph /  23.8km/h 83% 0.0in /  0mm WeatherDisplay:10.37 W/m2 FEW
03:06 -0.3 °F /  -17.9 °C -3.0 °F /  -19.4 °C 1010.0in /  34198.6hPa NNW 5.6mph /  9km/h 9.3mph /  15km/h 82% 0.0in /  0mm WeatherDisplay:10.37 W/m2 FEW
03:11 -0.2 °F /  -17.9 °C -2.9 °F /  -19.4 °C 1010.4in /  34212.1hPa NNW 1.4mph /  2.3km/h 16.7mph /  26.9km/h 82% 0.0in /  0mm WeatherDisplay:10.37 W/m2 FEW
03:16 -0.2 °F /  -17.9 °C -2.9 °F /  -19.4 °C 1010.4in /  34212.1hPa WNW 1.6mph /  2.6km/h 5.6mph /  9km/h 82% 0.0in /  0mm WeatherDisplay:10.37 W/m2 FEW
03:24 -0.1 °F /  -17.8 °C -3.0 °F /  -19.4 °C 1010.4in /  34212.1hPa SSE 3.7mph /  6km/h 18.5mph /  29.8km/h 81% 0.0in /  0mm WeatherDisplay:10.37 W/m2 FEW
03:29 -0.1 °F /  -17.8 °C -2.9 °F /  -19.4 °C 1010.4in /  34212.1hPa NNW 7.4mph /  11.9km/h 20.4mph /  32.8km/h 81% 0.0in /  0mm WeatherDisplay:10.37 W/m2 FEW
03:34 0.0 °F /  -17.8 °C -3.1 °F /  -19.5 °C 1010.4in /  34212.1hPa North 7.2mph /  11.6km/h 18.5mph /  29.8km/h 80% 0.0in /  0mm WeatherDisplay:10.37 W/m2 FEW
03:39 0.1 °F /  -17.7 °C -3.0 °F /  -19.4 °C 1010.4in /  34212.1hPa WNW 5.1mph /  8.2km/h 18.5mph /  29.8km/h 80% 0.0in /  0mm WeatherDisplay:10.37 W/m2 FEW
03:45 0.1 °F /  -17.7 °C -2.7 °F /  -19.3 °C 1011.1in /  34235.8hPa SSW 15.8mph /  25.4km/h 27.8mph /  44.7km/h 82% 0.0in /  0mm WeatherDisplay:10.37 W/m2 FEW
03:50 -0.1 °F /  -17.8 °C -2.5 °F /  -19.2 °C 1011.1in /  34235.8hPa SE 5.1mph /  8.2km/h 13.0mph /  20.9km/h 84% 0.0in /  0mm WeatherDisplay:10.37 W/m2 FEW
03:55 -0.2 °F /  -17.9 °C -2.9 °F /  -19.4 °C 1011.1in /  34235.8hPa North 7.4mph /  11.9km/h 22.2mph /  35.7km/h 82% 0.0in /  0mm WeatherDisplay:10.37 W/m2 FEW
04:02 -0.1 °F /  -17.8 °C -2.9 °F /  -19.4 °C 1011.4in /  34246hPa WNW 12.6mph /  20.3km/h 22.2mph /  35.7km/h 81% 0.0in /  0mm WeatherDisplay:10.37 W/m2 FEW
04:09 0.1 °F /  -17.7 °C -3.1 °F /  -19.5 °C 1011.4in /  34246hPa NW 14.2mph /  22.9km/h 27.8mph /  44.7km/h 79% 0.0in /  0mm WeatherDisplay:10.37 W/m2 FEW
04:17 0.1 °F /  -17.7 °C -3.3 °F /  -19.6 °C 1011.7in /  34256.2hPa WNW 9.8mph /  15.8km/h 25.9mph /  41.7km/h 78% 0.0in /  0mm WeatherDisplay:10.37 W/m2 FEW
04:25 0.1 °F /  -17.7 °C -3.4 °F /  -19.7 °C 1011.7in /  34256.2hPa NW 6.4mph /  10.3km/h 20.4mph /  32.8km/h 77% 0.0in /  0mm WeatherDisplay:10.37 W/m2 FEW
04:31 0.1 °F /  -17.7 °C -3.6 °F /  -19.8 °C 1012.1in /  34269.7hPa NW 4.8mph /  7.7km/h 20.4mph /  32.8km/h 76% 0.0in /  0mm WeatherDisplay:10.37 W/m2 FEW
04:36 0.1 °F /  -17.7 °C -3.6 °F /  -19.8 °C 1012.1in /  34269.7hPa NNW 8.5mph /  13.7km/h 16.7mph /  26.9km/h 76% 0.0in /  0mm WeatherDisplay:10.37 W/m2 FEW
04:41 0.1 °F /  -17.7 °C -3.7 °F /  -19.8 °C 1012.4in /  34279.9hPa NW 11.6mph /  18.7km/h 27.4mph /  44.1km/h 76% 0.0in /  0mm WeatherDisplay:10.37 W/m2 FEW
04:48 0.0 °F /  -17.8 °C -3.9 °F /  -19.9 °C 1012.4in /  34279.9hPa North 6.9mph /  11.1km/h 8.0mph /  12.9km/h 75% 0.0in /  0mm WeatherDisplay:10.37 W/m2 FEW
04:54 0.0 °F /  -17.8 °C -3.9 °F /  -19.9 °C 1012.8in /  34293.4hPa NW 3.5mph /  5.6km/h 13.0mph /  20.9km/h 75% 0.0in /  0mm WeatherDisplay:10.37 W/m2 FEW
05:01 -0.1 °F /  -17.8 °C -4.1 °F /  -20.1 °C 1013.1in /  34303.6hPa NNW 6.4mph /  10.3km/h 16.7mph /  26.9km/h 74% 0.0in /  0mm WeatherDisplay:10.37 W/m2 FEW
05:06 -0.2 °F /  -17.9 °C -4.2 °F /  -20.1 °C 1013.1in /  34303.6hPa NNW 14.5mph /  23.3km/h 25.9mph /  41.7km/h 74% 0.0in /  0mm WeatherDisplay:10.37 W/m2 FEW
05:12 -0.2 °F /  -17.9 °C -4.2 °F /  -20.1 °C 1013.1in /  34303.6hPa NW 6.0mph /  9.7km/h 16.7mph /  26.9km/h 74% 0.0in /  0mm WeatherDisplay:10.37 W/m2 FEW
05:18 -0.2 °F /  -17.9 °C -4.3 °F /  -20.2 °C 1013.4in /  34313.7hPa NNW 11.6mph /  18.7km/h 20.4mph /  32.8km/h 74% 0.0in /  0mm WeatherDisplay:10.37 W/m2 FEW
05:30 -0.3 °F /  -17.9 °C -4.4 °F /  -20.2 °C 1013.8in /  34327.3hPa NNE 8.5mph /  13.7km/h 31.5mph /  50.7km/h 74% 0.0in /  0mm WeatherDisplay:10.37 W/m2 FEW
06:01 -0.8 °F /  -18.2 °C -5.0 °F /  -20.6 °C 1014.4in /  34347.6hPa NW 10.6mph /  17.1km/h 14.8mph /  23.8km/h 73% 0.0in /  0mm WeatherDisplay:10.37 W/m2 FEW
06:48 -1.5 °F /  -18.6 °C -5.7 °F /  -20.9 °C 1015.8in /  34395hPa NNW 8.8mph /  14.2km/h 30.6mph /  49.2km/h 73% 0.0in /  0mm WeatherDisplay:10.37 W/m2 FEW
07:59 -1.7 °F /  -18.7 °C -5.4 °F /  -20.8 °C 1017.5in /  34452.6hPa West 6.0mph /  9.7km/h 14.8mph /  23.8km/h 76% 0.0in /  0mm WeatherDisplay:10.37 W/m2 FEW
09:40 -1.7 °F /  -18.7 °C -5.7 °F /  -20.9 °C 1019.9in /  34533.8hPa WNW 6.6mph /  10.6km/h 13.0mph /  20.9km/h 74% 0.0in /  0mm WeatherDisplay:10.37 W/m2 FEW
09:53 -1.7 °F /  -18.7 °C -5.7 °F /  -20.9 °C 1020.2in /  34544hPa WNW 8.4mph /  13.5km/h 20.4mph /  32.8km/h 74% 0.0in /  0mm WeatherDisplay:10.37 W/m2 FEW
10:36 -1.8 °F /  -18.8 °C -6.0 °F /  -21.1 °C 1021.2in /  34577.8hPa WNW 9.3mph /  15km/h 11.1mph /  17.9km/h 73% 0.0in /  0mm WeatherDisplay:10.37 W/m2 FEW
11:05 -1.8 °F /  -18.8 °C -6.2 °F /  -21.2 °C 1021.6in /  34591.4hPa NNE 8.7mph /  14km/h 20.9mph /  33.6km/h 72% 0.0in /  0mm WeatherDisplay:10.37 W/m2 FEW
11:13 -1.8 °F /  -18.8 °C -6.2 °F /  -21.2 °C 1021.9in /  34601.5hPa NNW 7.2mph /  11.6km/h 16.7mph /  26.9km/h 72% 0.0in /  0mm WeatherDisplay:10.37 W/m2 FEW
11:20 -1.8 °F /  -18.8 °C -6.2 °F /  -21.2 °C 1021.9in /  34601.5hPa NW 13.8mph /  22.2km/h 27.8mph /  44.7km/h 72% 0.0in /  0mm WeatherDisplay:10.37 W/m2 FEW
11:27 -1.7 °F /  -18.7 °C -6.1 °F /  -21.2 °C 1021.9in /  34601.5hPa WNW 8.4mph /  13.5km/h 20.4mph /  32.8km/h 72% 0.0in /  0mm WeatherDisplay:10.37 W/m2 FEW
11:29 -1.7 °F /  -18.7 °C -6.1 °F /  -21.2 °C 1021.9in /  34601.5hPa North 9.5mph /  15.3km/h 14.8mph /  23.8km/h 72% 0.0in /  0mm WeatherDisplay:10.37 W/m2 FEW
11:34 -1.7 °F /  -18.7 °C -6.1 °F /  -21.2 °C 1022.2in /  34611.7hPa North 5.6mph /  9km/h 13.0mph /  20.9km/h 72% 0.0in /  0mm WeatherDisplay:10.37 W/m2 FEW
11:40 -1.7 °F /  -18.7 °C -6.1 °F /  -21.2 °C 1022.2in /  34611.7hPa NNW 6.1mph /  9.8km/h 22.2mph /  35.7km/h 72% 0.0in /  0mm WeatherDisplay:10.37 W/m2 FEW
11:45 -1.7 °F /  -18.7 °C -6.1 °F /  -21.2 °C 1022.6in /  34625.2hPa NW 5.3mph /  8.5km/h 13.0mph /  20.9km/h 72% 0.0in /  0mm WeatherDisplay:10.37 W/m2 FEW
11:51 -1.7 °F /  -18.7 °C -6.2 °F /  -21.2 °C 1022.6in /  34625.2hPa West 7.4mph /  11.9km/h 14.8mph /  23.8km/h 71% 0.0in /  0mm WeatherDisplay:10.37 W/m2 FEW
11:57 -1.6 °F /  -18.7 °C -6.2 °F /  -21.2 °C 1022.6in /  34625.2hPa North 4.7mph /  7.6km/h 7.4mph /  11.9km/h 71% 0.0in /  0mm WeatherDisplay:10.37 W/m2 FEW
12:02 -1.6 °F /  -18.7 °C -6.2 °F /  -21.2 °C 1022.6in /  34625.2hPa NW 9.0mph /  14.5km/h 16.7mph /  26.9km/h 71% 0.0in /  0mm WeatherDisplay:10.37 W/m2 FEW
12:03 -1.6 °F /  -18.7 °C -6.2 °F /  -21.2 °C 1022.6in /  34625.2hPa NW 2.7mph /  4.3km/h 18.5mph /  29.8km/h 71% 0.0in /  0mm WeatherDisplay:10.37 W/m2 FEW
12:08 -1.6 °F /  -18.7 °C -6.2 °F /  -21.2 °C 1022.6in /  34625.2hPa WNW 4.0mph /  6.4km/h 11.1mph /  17.9km/h 71% 0.0in /  0mm WeatherDisplay:10.37 W/m2 FEW
12:15 -1.6 °F /  -18.7 °C -6.2 °F /  -21.2 °C 1022.6in /  34625.2hPa NW 7.4mph /  11.9km/h 14.8mph /  23.8km/h 71% 0.0in /  0mm WeatherDisplay:10.37 W/m2 FEW
12:26 -1.6 °F /  -18.7 °C -6.2 °F /  -21.2 °C 1022.9in /  34635.4hPa NW 5.6mph /  9km/h 16.1mph /  25.9km/h 71% 0.0in /  0mm WeatherDisplay:10.37 W/m2 FEW
12:31 -1.6 °F /  -18.7 °C -6.1 °F /  -21.2 °C 1022.9in /  34635.4hPa West 3.1mph /  5km/h 5.6mph /  9km/h 71% 0.0in /  0mm WeatherDisplay:10.37 W/m2 FEW
12:36 -1.6 °F /  -18.7 °C -6.2 °F /  -21.2 °C 1023.2in /  34645.6hPa WNW 6.3mph /  10.1km/h 13.0mph /  20.9km/h 71% 0.0in /  0mm WeatherDisplay:10.37 W/m2 FEW
12:42 -1.6 °F /  -18.7 °C -6.1 °F /  -21.2 °C 1023.2in /  34645.6hPa NNW 0.6mph /  1km/h 7.4mph /  11.9km/h 71% 0.0in /  0mm WeatherDisplay:10.37 W/m2 FEW
12:47 -1.6 °F /  -18.7 °C -6.2 °F /  -21.2 °C 1023.2in /  34645.6hPa NW 5.6mph /  9km/h 11.1mph /  17.9km/h 71% 0.0in /  0mm WeatherDisplay:10.37 W/m2 FEW
12:54 -1.6 °F /  -18.7 °C -6.1 °F /  -21.2 °C 1023.2in /  34645.6hPa NW 7.9mph /  12.7km/h 8.0mph /  12.9km/h 71% 0.0in /  0mm WeatherDisplay:10.37 W/m2 FEW
13:00 -1.6 °F /  -18.7 °C -6.1 °F /  -21.2 °C 1023.6in /  34659.1hPa NW 1.1mph /  1.8km/h 5.6mph /  9km/h 71% 0.0in /  0mm WeatherDisplay:10.37 W/m2 FEW
13:05 -1.6 °F /  -18.7 °C -5.9 °F /  -21.1 °C 1023.6in /  34659.1hPa NNW 1.4mph /  2.3km/h 7.4mph /  11.9km/h 72% 0.0in /  0mm WeatherDisplay:10.37 W/m2 FEW
13:11 -1.6 °F /  -18.7 °C -5.9 °F /  -21.1 °C 1023.6in /  34659.1hPa West 3.5mph /  5.6km/h 13.0mph /  20.9km/h 72% 0.0in /  0mm WeatherDisplay:10.37 W/m2 FEW
13:17 -1.6 °F /  -18.7 °C -6.0 °F /  -21.1 °C 1023.6in /  34659.1hPa NW 6.4mph /  10.3km/h 6.4mph /  10.3km/h 72% 0.0in /  0mm WeatherDisplay:10.37 W/m2 FEW
13:22 -1.6 °F /  -18.7 °C -5.9 °F /  -21.1 °C 1023.6in /  34659.1hPa NW 1.9mph /  3.1km/h 20.4mph /  32.8km/h 72% 0.0in /  0mm WeatherDisplay:10.37 W/m2 FEW
13:28 -1.6 °F /  -18.7 °C -5.9 °F /  -21.1 °C 1023.6in /  34659.1hPa WNW 5.1mph /  8.2km/h 9.3mph /  15km/h 72% 0.0in /  0mm WeatherDisplay:10.37 W/m2 FEW
13:29 -1.6 °F /  -18.7 °C -5.9 °F /  -21.1 °C 1023.6in /  34659.1hPa WNW 2.1mph /  3.4km/h 7.4mph /  11.9km/h 72% 0.0in /  0mm WeatherDisplay:10.37 W/m2 FEW
13:34 -1.6 °F /  -18.7 °C -5.9 °F /  -21.1 °C 1023.6in /  34659.1hPa WNW 4.2mph /  6.8km/h 9.3mph /  15km/h 72% 0.0in /  0mm WeatherDisplay:10.37 W/m2 FEW
13:41 -1.6 °F /  -18.7 °C -5.9 °F /  -21.1 °C 1023.9in /  34669.3hPa NNW 6.3mph /  10.1km/h 14.8mph /  23.8km/h 72% 0.0in /  0mm WeatherDisplay:10.37 W/m2 FEW
13:48 -1.6 °F /  -18.7 °C -5.9 °F /  -21.1 °C 1023.9in /  34669.3hPa NW 10.0mph /  16.1km/h 16.7mph /  26.9km/h 72% 0.0in /  0mm WeatherDisplay:10.37 W/m2 FEW
13:53 -1.5 °F /  -18.6 °C -5.9 °F /  -21.1 °C 1023.9in /  34669.3hPa West 2.4mph /  3.9km/h 11.1mph /  17.9km/h 72% 0.0in /  0mm WeatherDisplay:10.37 W/m2 FEW
14:01 -1.4 °F /  -18.6 °C -5.7 °F /  -20.9 °C 1023.9in /  34669.3hPa WNW 1.0mph /  1.6km/h 3.7mph /  6km/h 73% 0.0in /  0mm WeatherDisplay:10.37 W/m2 FEW
14:08 -1.6 °F /  -18.7 °C -5.8 °F /  -21 °C 1024.3in /  34682.8hPa NNW 2.3mph /  3.7km/h 9.7mph /  15.6km/h 73% 0.0in /  0mm WeatherDisplay:10.37 W/m2 FEW
14:14 -1.6 °F /  -18.7 °C -5.6 °F /  -20.9 °C 1024.3in /  34682.8hPa NNW 5.6mph /  9km/h 14.8mph /  23.8km/h 74% 0.0in /  0mm WeatherDisplay:10.37 W/m2 FEW
14:16 -1.6 °F /  -18.7 °C -5.7 °F /  -20.9 °C 1024.3in /  34682.8hPa NNW 3.4mph /  5.5km/h 14.5mph /  23.3km/h 74% 0.0in /  0mm WeatherDisplay:10.37 W/m2 FEW
14:22 -1.6 °F /  -18.7 °C -5.4 °F /  -20.8 °C 1024.3in /  34682.8hPa Calm   5.6mph /  9km/h 75% 0.0in /  0mm WeatherDisplay:10.37 W/m2 FEW
14:28 -1.7 °F /  -18.7 °C -5.3 °F /  -20.7 °C 1024.6in /  34693hPa NW 0.5mph /  0.8km/h   76% 0.0in /  0mm WeatherDisplay:10.37 W/m2 FEW
14:33 -1.7 °F /  -18.7 °C -5.3 °F /  -20.7 °C 1024.6in /  34693hPa Calm     76% 0.0in /  0mm WeatherDisplay:10.37 W/m2 FEW
14:39 -1.7 °F /  -18.7 °C -5.4 °F /  -20.8 °C 1024.6in /  34693hPa Calm     76% 0.0in /  0mm WeatherDisplay:10.37 W/m2 FEW
14:44 -1.7 °F /  -18.7 °C -5.2 °F /  -20.7 °C 1024.6in /  34693hPa Calm   3.7mph /  6km/h 77% 0.0in /  0mm WeatherDisplay:10.37 W/m2 FEW
14:51 -1.7 °F /  -18.7 °C -5.2 °F /  -20.7 °C 1024.6in /  34693hPa Calm     77% 0.0in /  0mm WeatherDisplay:10.37 W/m2 FEW
14:57 -1.8 °F /  -18.8 °C -5.2 °F /  -20.7 °C 1024.6in /  34693hPa Calm     78% 0.0in /  0mm WeatherDisplay:10.37 W/m2 FEW
15:04 -2.0 °F /  -18.9 °C -5.2 °F /  -20.7 °C 1024.6in /  34693hPa Calm     79% 0.0in /  0mm WeatherDisplay:10.37 W/m2 FEW
15:09 -2.1 °F /  -18.9 °C -5.1 °F /  -20.6 °C 1024.6in /  34693hPa Calm     80% 0.0in /  0mm WeatherDisplay:10.37 W/m2 FEW
15:16 -2.2 °F /  -19 °C -5.2 °F /  -20.7 °C 1024.6in /  34693hPa Calm     80% 0.0in /  0mm WeatherDisplay:10.37 W/m2 FEW
15:27 -2.3 °F /  -19.1 °C -5.2 °F /  -20.7 °C 1024.6in /  34693hPa Calm     81% 0.0in /  0mm WeatherDisplay:10.37 W/m2 FEW
15:32 -2.5 °F /  -19.2 °C -5.3 °F /  -20.7 °C 1024.6in /  34693hPa Calm     81% 0.0in /  0mm WeatherDisplay:10.37 W/m2 FEW
15:38 -2.7 °F /  -19.3 °C -5.3 °F /  -20.7 °C 1024.6in /  34693hPa Calm     82% 0.0in /  0mm WeatherDisplay:10.37 W/m2 FEW
15:42 -2.8 °F /  -19.3 °C -5.4 °F /  -20.8 °C 1024.6in /  34693hPa Calm     82% 0.0in /  0mm WeatherDisplay:10.37 W/m2 FEW
15:48 -2.9 °F /  -19.4 °C -5.4 °F /  -20.8 °C 1024.6in /  34693hPa Calm     83% 0.0in /  0mm WeatherDisplay:10.37 W/m2 FEW
15:57 -3.1 °F /  -19.5 °C -5.4 °F /  -20.8 °C 1024.6in /  34693hPa Calm     84% 0.0in /  0mm WeatherDisplay:10.37 W/m2 FEW
16:04 -3.3 °F /  -19.6 °C -5.4 °F /  -20.8 °C 1024.6in /  34693hPa Calm     85% 0.0in /  0mm WeatherDisplay:10.37 W/m2 FEW
16:10 -3.3 °F /  -19.6 °C -5.5 °F /  -20.8 °C 1024.6in /  34693hPa Calm     85% 0.0in /  0mm WeatherDisplay:10.37 W/m2 FEW
16:13 -3.4 °F /  -19.7 °C -5.6 °F /  -20.9 °C 1024.6in /  34693hPa Calm     85% 0.0in /  0mm WeatherDisplay:10.37 W/m2 FEW
16:18 -3.4 °F /  -19.7 °C -5.4 °F /  -20.8 °C 1024.6in /  34693hPa Calm     86% 0.0in /  0mm WeatherDisplay:10.37 W/m2 FEW
16:25 -3.4 °F /  -19.7 °C -5.4 °F /  -20.8 °C 1024.6in /  34693hPa Calm     86% 0.0in /  0mm WeatherDisplay:10.37 W/m2 FEW
16:32 -3.5 °F /  -19.7 °C -5.5 °F /  -20.8 °C 1024.6in /  34693hPa Calm     86% 0.0in /  0mm WeatherDisplay:10.37 W/m2 FEW
16:37 -3.6 °F /  -19.8 °C -5.6 °F /  -20.9 °C 1024.6in /  34693hPa Calm     86% 0.0in /  0mm WeatherDisplay:10.37 W/m2 FEW
16:46 -3.7 °F /  -19.8 °C -5.5 °F /  -20.8 °C 1024.6in /  34693hPa Calm     87% 0.0in /  0mm WeatherDisplay:10.37 W/m2 FEW
16:54 -3.8 °F /  -19.9 °C -5.6 °F /  -20.9 °C 1024.6in /  34693hPa Calm     87% 0.0in /  0mm WeatherDisplay:10.37 W/m2 FEW
17:05 -4.0 °F /  -20 °C -5.8 °F /  -21 °C 1024.6in /  34693hPa Calm     87% 0.0in /  0mm WeatherDisplay:10.37 W/m2 FEW
17:11 -4.1 °F /  -20.1 °C -5.9 °F /  -21.1 °C 1024.9in /  34703.1hPa Calm     87% 0.0in /  0mm WeatherDisplay:10.37 W/m2 FEW
17:31 -4.4 °F /  -20.2 °C -6.1 °F /  -21.2 °C 1024.9in /  34703.1hPa Calm     88% 0.0in /  0mm WeatherDisplay:10.37 W/m2 FEW
17:46 -4.7 °F /  -20.4 °C -6.3 °F /  -21.3 °C 1024.9in /  34703.1hPa Calm     89% 0.0in /  0mm WeatherDisplay:10.37 W/m2 FEW
17:53 -4.6 °F /  -20.3 °C -6.0 °F /  -21.1 °C 1025.3in /  34716.7hPa Calm     90% 0.0in /  0mm WeatherDisplay:10.37 W/m2 FEW
18:04 -4.3 °F /  -20.2 °C -5.5 °F /  -20.8 °C 1025.3in /  34716.7hPa Calm     91% 0.0in /  0mm WeatherDisplay:10.37 W/m2 FEW
18:09 -4.1 °F /  -20.1 °C -5.4 °F /  -20.8 °C 1025.3in /  34716.7hPa Calm     91% 0.0in /  0mm WeatherDisplay:10.37 W/m2 FEW
18:26 -3.6 °F /  -19.8 °C -4.8 °F /  -20.4 °C 1025.3in /  34716.7hPa Calm     91% 0.0in /  0mm WeatherDisplay:10.37 W/m2 FEW
18:33 -3.4 °F /  -19.7 °C -4.7 °F /  -20.4 °C 1025.3in /  34716.7hPa Calm     91% 0.0in /  0mm WeatherDisplay:10.37 W/m2 FEW
18:38 -3.3 °F /  -19.6 °C -4.6 °F /  -20.3 °C 1025.3in /  34716.7hPa Calm     91% 0.0in /  0mm WeatherDisplay:10.37 W/m2 FEW
18:43 -3.2 °F /  -19.6 °C -4.4 °F /  -20.2 °C 1025.3in /  34716.7hPa Calm     91% 0.0in /  0mm WeatherDisplay:10.37 W/m2 FEW
18:44 -3.2 °F /  -19.6 °C -4.4 °F /  -20.2 °C 1025.3in /  34716.7hPa Calm     91% 0.0in /  0mm WeatherDisplay:10.37 W/m2 FEW
18:48 -3.1 °F /  -19.5 °C -4.3 °F /  -20.2 °C 1025.3in /  34716.7hPa Calm     91% 0.0in /  0mm WeatherDisplay:10.37 W/m2 FEW
18:53 -3.0 °F /  -19.4 °C -4.3 °F /  -20.2 °C 1024.9in /  34703.1hPa Calm     91% 0.0in /  0mm WeatherDisplay:10.37 W/m2 FEW
18:58 -2.9 °F /  -19.4 °C -4.2 °F /  -20.1 °C 1025.3in /  34716.7hPa Calm     91% 0.0in /  0mm WeatherDisplay:10.37 W/m2 FEW
19:03 -2.8 °F /  -19.3 °C -4.1 °F /  -20.1 °C 1024.9in /  34703.1hPa Calm     91% 0.0in /  0mm WeatherDisplay:10.37 W/m2 FEW
19:07 -2.7 °F /  -19.3 °C -4.0 °F /  -20 °C 1025.3in /  34716.7hPa Calm     91% 0.0in /  0mm WeatherDisplay:10.37 W/m2 FEW
19:12 -2.7 °F /  -19.3 °C -3.9 °F /  -19.9 °C 1025.3in /  34716.7hPa Calm     91% 0.0in /  0mm WeatherDisplay:10.37 W/m2 FEW
19:17 -2.6 °F /  -19.2 °C -3.8 °F /  -19.9 °C 1025.3in /  34716.7hPa Calm     91% 0.0in /  0mm WeatherDisplay:10.37 W/m2 FEW
19:22 -2.5 °F /  -19.2 °C -3.8 °F /  -19.9 °C 1025.3in /  34716.7hPa Calm     91% 0.0in /  0mm WeatherDisplay:10.37 W/m2 FEW
19:28 -2.4 °F /  -19.1 °C -3.7 °F /  -19.8 °C 1024.9in /  34703.1hPa Calm     91% 0.0in /  0mm WeatherDisplay:10.37 W/m2 FEW
19:33 -2.4 °F /  -19.1 °C -3.8 °F /  -19.9 °C 1024.9in /  34703.1hPa Calm     90% 0.0in /  0mm WeatherDisplay:10.37 W/m2 FEW
19:38 -2.4 °F /  -19.1 °C -3.8 °F /  -19.9 °C 1025.3in /  34716.7hPa Calm     90% 0.0in /  0mm WeatherDisplay:10.37 W/m2 FEW
19:43 -2.3 °F /  -19.1 °C -3.8 °F /  -19.9 °C 1025.3in /  34716.7hPa Calm     90% 0.0in /  0mm WeatherDisplay:10.37 W/m2 FEW
19:48 -2.3 °F /  -19.1 °C -3.7 °F /  -19.8 °C 1025.3in /  34716.7hPa Calm     90% 0.0in /  0mm WeatherDisplay:10.37 W/m2 FEW
19:53 -2.3 °F /  -19.1 °C -3.7 °F /  -19.8 °C 1024.9in /  34703.1hPa Calm     90% 0.0in /  0mm WeatherDisplay:10.37 W/m2 FEW
19:59 -2.3 °F /  -19.1 °C -3.7 °F /  -19.8 °C 1024.9in /  34703.1hPa Calm     90% 0.0in /  0mm WeatherDisplay:10.37 W/m2 FEW
20:04 -2.2 °F /  -19 °C -3.7 °F /  -19.8 °C 1024.9in /  34703.1hPa Calm     90% 0.0in /  0mm WeatherDisplay:10.37 W/m2 FEW
20:07 -2.2 °F /  -19 °C -3.7 °F /  -19.8 °C 1024.9in /  34703.1hPa Calm     90% 0.0in /  0mm WeatherDisplay:10.37 W/m2 FEW
20:12 -2.2 °F /  -19 °C -3.7 °F /  -19.8 °C 1024.9in /  34703.1hPa Calm     90% 0.0in /  0mm WeatherDisplay:10.37 W/m2 FEW
20:18 -2.2 °F /  -19 °C -3.6 °F /  -19.8 °C 1024.9in /  34703.1hPa Calm     90% 0.0in /  0mm WeatherDisplay:10.37 W/m2 FEW
20:23 -2.2 °F /  -19 °C -3.4 °F /  -19.7 °C 1024.9in /  34703.1hPa Calm     91% 0.0in /  0mm WeatherDisplay:10.37 W/m2 FEW
20:29 -2.1 °F /  -18.9 °C -3.4 °F /  -19.7 °C 1024.9in /  34703.1hPa Calm     91% 0.0in /  0mm WeatherDisplay:10.37 W/m2 FEW
20:30 -2.1 °F /  -18.9 °C -3.4 °F /  -19.7 °C 1024.9in /  34703.1hPa Calm     91% 0.0in /  0mm WeatherDisplay:10.37 W/m2 FEW
20:36 -2.1 °F /  -18.9 °C -3.3 °F /  -19.6 °C 1024.9in /  34703.1hPa Calm     91% 0.0in /  0mm WeatherDisplay:10.37 W/m2 FEW
20:42 -2.1 °F /  -18.9 °C -3.3 °F /  -19.6 °C 1024.9in /  34703.1hPa Calm     91% 0.0in /  0mm WeatherDisplay:10.37 W/m2 FEW
20:48 -2.1 °F /  -18.9 °C -3.3 °F /  -19.6 °C 1024.9in /  34703.1hPa Calm     91% 0.0in /  0mm WeatherDisplay:10.37 W/m2 FEW
20:54 -2.0 °F /  -18.9 °C -3.3 °F /  -19.6 °C 1025.3in /  34716.7hPa Calm     91% 0.0in /  0mm WeatherDisplay:10.37 W/m2 FEW
20:59 -2.0 °F /  -18.9 °C -3.3 °F /  -19.6 °C 1024.9in /  34703.1hPa Calm     91% 0.0in /  0mm WeatherDisplay:10.37 W/m2 FEW
21:05 -1.9 °F /  -18.8 °C -3.2 °F /  -19.6 °C 1024.9in /  34703.1hPa Calm     91% 0.0in /  0mm WeatherDisplay:10.37 W/m2 FEW
21:11 -1.9 °F /  -18.8 °C -3.2 °F /  -19.6 °C 1025.3in /  34716.7hPa Calm     91% 0.0in /  0mm WeatherDisplay:10.37 W/m2 FEW
21:17 -1.9 °F /  -18.8 °C -3.2 °F /  -19.6 °C 1025.3in /  34716.7hPa Calm     91% 0.0in /  0mm WeatherDisplay:10.37 W/m2 FEW
21:22 -1.9 °F /  -18.8 °C -3.2 °F /  -19.6 °C 1025.3in /  34716.7hPa Calm     91% 0.0in /  0mm WeatherDisplay:10.37 W/m2 FEW
21:23 -1.9 °F /  -18.8 °C -3.2 °F /  -19.6 °C 1025.3in /  34716.7hPa Calm     91% 0.0in /  0mm WeatherDisplay:10.37 W/m2 FEW
21:28 -1.9 °F /  -18.8 °C -3.2 °F /  -19.6 °C 1025.3in /  34716.7hPa Calm     91% 0.0in /  0mm WeatherDisplay:10.37 W/m2 FEW
21:33 -1.8 °F /  -18.8 °C -3.1 °F /  -19.5 °C 1025.3in /  34716.7hPa Calm     91% 0.0in /  0mm WeatherDisplay:10.37 W/m2 FEW
21:38 -1.8 °F /  -18.8 °C -3.1 °F /  -19.5 °C 1025.3in /  34716.7hPa Calm     91% 0.0in /  0mm WeatherDisplay:10.37 W/m2 FEW
21:44 -1.8 °F /  -18.8 °C -3.1 °F /  -19.5 °C 1025.3in /  34716.7hPa Calm     91% 0.0in /  0mm WeatherDisplay:10.37 W/m2 FEW
21:47 -1.8 °F /  -18.8 °C -3.1 °F /  -19.5 °C 1025.3in /  34716.7hPa Calm     91% 0.0in /  0mm WeatherDisplay:10.37 W/m2 FEW
21:52 -1.8 °F /  -18.8 °C -3.1 °F /  -19.5 °C 1025.3in /  34716.7hPa Calm     91% 0.0in /  0mm WeatherDisplay:10.37 W/m2 FEW
21:58 -1.8 °F /  -18.8 °C -3.1 °F /  -19.5 °C 1025.3in /  34716.7hPa Calm     91% 0.0in /  0mm WeatherDisplay:10.37 W/m2 FEW
22:07 -1.7 °F /  -18.7 °C -3.0 °F /  -19.4 °C 1025.6in /  34726.8hPa Calm     91% 0.0in /  0mm WeatherDisplay:10.37 W/m2 FEW
22:14 -1.7 °F /  -18.7 °C -3.0 °F /  -19.4 °C 1025.3in /  34716.7hPa Calm     91% 0.0in /  0mm WeatherDisplay:10.37 W/m2 FEW
23:10 -1.4 °F /  -18.6 °C -2.6 °F /  -19.2 °C 1025.6in /  34726.8hPa Calm     92% 0.0in /  0mm WeatherDisplay:10.37 W/m2 FEW
23:23 -1.3 °F /  -18.5 °C -2.4 °F /  -19.1 °C 1025.6in /  34726.8hPa Calm     92% 0.0in /  0mm WeatherDisplay:10.37 W/m2 FEW
23:31 -1.3 °F /  -18.5 °C -2.4 °F /  -19.1 °C 1025.6in /  34726.8hPa Calm     92% 0.0in /  0mm WeatherDisplay:10.37 W/m2 FEW
23:50 -1.3 °F /  -18.5 °C -2.3 °F /  -19.1 °C 1025.3in /  34716.7hPa Calm     93% 0.0in /  0mm WeatherDisplay:10.37 W/m2 FEW
23:59 -1.3 °F /  -18.5 °C -2.3 °F /  -19.1 °C 1024.9in /  34703.1hPa Calm     93% 0.0in /  0mm WeatherDisplay:10.37 W/m2 FEW
Tuulensuunkaari, Veikkola, Suomi
Compliments of Weather Underground - 2 mb